Marion Center, PA

7:21 PM EST on November 27, 2014 (GMT -0500)
Clearfield-Lawrence | Change Station
CLOSE
Current Station
Airport
Location: Clearfield,
Elevation: 1516 ft
Nearby Weather Stations

Elev 1516 ft 41.05 °N, 78.41 °W | Updated 27 minutes ago

Snow
Snow
30 °F
Feels Like 20 °F
N
13
Wind Variable Wind from West

Today
High -- | Low -- °F
--% Chance of Precip.
Yesterday
High -- | Low -- °F
Precip. -- in
7:16 AM 4:50 PM
Waxing Crescent, 34% visible
Pressure 30.12 in
Visibility 7.0 miles
Clouds Mostly Cloudy 3300 ft
Overcast 7000 ft
Windchill 20 °F
Dew Point 26 °F
Humidity 85%
Rainfall 0.01 in
Snow Depth Not available.
UV 0 out of 12
Pollen .10 out of 12
Air Quality Not available.
Flu Activity Not available.
METAR KFIG 272354Z AUTO 28011KT 7SM -SN BKN033 OVC070 M01/M03 A3007 RMK AO2 SNE16B35 SLP200 P0000 60000 T10111033 10006 21011 51016

More Conditions Fewer Conditions

Pressure 30.12 in
Visibility 7.0 miles
Clouds Mostly Cloudy 3300 ft
Overcast 7000 ft
Windchill 20 °F
Dew Point 26 °F
Humidity 85%
Rainfall 0.01 in
Snow Depth Not available.
UV 0 out of 12
Pollen .10 out of 12
Air Quality Not available.
Flu Activity Not available.
METAR KFIG 272354Z AUTO 28011KT 7SM -SN BKN033 OVC070 M01/M03 A3007 RMK AO2 SNE16B35 SLP200 P0000 60000 T10111033 10006 21011 51016

More Conditions Fewer Conditions

10-Day Weather Forecast

Almanac

Astronomy

Nov. 27, 2014 Rise Set
Actual Time
Civil Twilight
Nautical Twilight
Astronomical Twilight
Moon
Length of Visible Light
Length of Day
Tomorrow will be .
, % of the Moon is Illuminated

Today's Extremes

State Highs State Lows

Community

WunderPhotos

Upload Photos

1,774,146 photos uploaded!

WunderBlogs® & News

Nearby

Air Quality

  Air Quality AQ Index Pollutant
Not available.

Snow Depth

Station Depth Elevation

Earthquake Activity

City Distance Mag. Time & Date
Minimum magnitude displayed is 2.5.

Coastal Water Temperatures

Place Temperature

Nearby Weather Stations